Time;durP1;ratioP1;P1;durP2;ratioP2;P2;SDS_P1;SDS_P2;PMS_P1;PMS_P2;Temp;Humidity;BMP_temperature;BMP_pressure;BME280_temperature;BME280_humidity;BME280_pressure;Samples;Min_cycle;Max_cycle;Signal;HPM_P1;HPM_P2
2023/01/19 00:01:40;;;;;;;1.20;0.82;;;;;;;;;;5090746;28;20048;-60
2023/01/19 00:04:09;;;;;;;1.15;0.47;;;;;;;;;;5093323;28;20391;-60
2023/01/19 00:06:38;;;;;;;6.00;1.50;;;;;;;;;;5092279;28;20413;-60
2023/01/19 00:09:07;;;;;;;1.58;1.30;;;;;;;;;;5092631;28;20051;-60
2023/01/19 00:11:35;;;;;;;0.88;0.73;;;;;;;;;;5091724;28;20153;-60
2023/01/19 00:14:03;;;;;;;2.42;1.52;;;;;;;;;;5086581;28;20587;-60
2023/01/19 00:16:32;;;;;;;0.70;0.70;;;;;;;;;;5098499;28;20040;-60
2023/01/19 00:19:00;;;;;;;0.98;0.85;;;;;;;;;;5090958;28;20036;-59
2023/01/19 00:21:28;;;;;;;8.25;1.45;;;;;;;;;;5082431;28;20098;-59
2023/01/19 00:23:58;;;;;;;1.15;1.05;;;;;;;;;;5089139;28;20124;-60
2023/01/19 00:26:26;;;;;;;1.45;1.00;;;;;;;;;;5090762;28;20044;-61
2023/01/19 00:28:55;;;;;;;3.92;3.03;;;;;;;;;;5095398;28;20492;-60
2023/01/19 00:31:23;;;;;;;1.15;1.05;;;;;;;;;;5089713;28;20044;-60
2023/01/19 00:33:51;;;;;;;0.75;0.65;;;;;;;;;;5087536;28;20036;-60
2023/01/19 00:36:20;;;;;;;0.77;0.75;;;;;;;;;;5090369;28;20044;-60
2023/01/19 00:38:48;;;;;;;4.07;1.35;;;;;;;;;;5093655;28;20499;-60
2023/01/19 00:42:38;;;;;;;2.30;0.75;;;;;;;;;;5095799;28;20058;-60
2023/01/19 00:44:07;;;;;;;0.90;0.57;;;;;;;;;;5100765;28;20044;-61
2023/01/19 00:46:35;;;;;;;2.55;1.27;;;;;;;;;;5088272;28;20087;-60
2023/01/19 00:49:04;;;;;;;2.20;1.35;;;;;;;;;;5097700;28;20060;-60
2023/01/19 00:51:32;;;;;;;2.60;0.80;;;;;;;;;;5097923;28;20040;-60
2023/01/19 00:54:03;;;;;;;1.15;1.15;;;;;;;;;;5093937;28;20063;-60
2023/01/19 00:56:34;;;;;;;3.83;1.20;;;;;;;;;;5087542;28;20249;-61
2023/01/19 00:59:02;;;;;;;1.60;1.23;;;;;;;;;;5087805;28;20083;-60
2023/01/19 01:01:30;;;;;;;0.20;0.20;;;;;;;;;;5095274;28;20059;-60
2023/01/19 01:04:13;;;;;;;1.45;1.23;;;;;;;;;;5086059;28;20824;-60
2023/01/19 01:06:41;;;;;;;2.28;1.83;;;;;;;;;;5080621;28;20048;-60
2023/01/19 01:09:11;;;;;;;0.98;0.85;;;;;;;;;;5090732;28;20052;-60
2023/01/19 01:11:41;;;;;;;2.15;1.02;;;;;;;;;;5089267;28;20055;-60
2023/01/19 01:14:10;;;;;;;0.70;0.70;;;;;;;;;;5086540;28;20054;-60
2023/01/19 01:16:38;;;;;;;1.88;1.13;;;;;;;;;;5099807;28;20048;-60
2023/01/19 01:19:07;;;;;;;2.15;0.82;;;;;;;;;;5092099;28;20043;-60
2023/01/19 01:21:36;;;;;;;0.82;0.82;;;;;;;;;;5086037;28;20047;-59
2023/01/19 01:24:04;;;;;;;1.92;1.30;;;;;;;;;;5089780;28;20122;-61
2023/01/19 01:26:32;;;;;;;7.60;1.70;;;;;;;;;;5091494;28;20058;-60
2023/01/19 01:29:02;;;;;;;1.67;1.27;;;;;;;;;;5087934;28;20048;-59
2023/01/19 01:31:30;;;;;;;1.70;1.13;;;;;;;;;;5089195;28;20046;-60
2023/01/19 01:33:59;;;;;;;0.77;0.77;;;;;;;;;;5084966;28;20044;-60
2023/01/19 01:36:30;;;;;;;5.10;1.30;;;;;;;;;;5092070;28;20063;-59
2023/01/19 01:38:58;;;;;;;1.42;0.50;;;;;;;;;;5090793;28;20044;-60
2023/01/19 01:41:27;;;;;;;0.75;0.75;;;;;;;;;;5088934;28;20035;-59
2023/01/19 01:43:58;;;;;;;0.77;0.70;;;;;;;;;;5100901;28;20279;-60
2023/01/19 01:46:29;;;;;;;2.08;1.25;;;;;;;;;;5093877;28;20505;-60
2023/01/19 01:49:02;;;;;;;0.75;0.75;;;;;;;;;;5090800;28;20051;-60
2023/01/19 01:51:33;;;;;;;1.92;1.23;;;;;;;;;;5087232;28;20418;-59
2023/01/19 01:54:06;;;;;;;1.73;1.63;;;;;;;;;;5087969;28;20040;-61
2023/01/19 01:56:36;;;;;;;1.48;1.08;;;;;;;;;;5077271;28;20057;-60
2023/01/19 01:59:06;;;;;;;0.75;0.73;;;;;;;;;;5095325;28;20050;-60
2023/01/19 02:04:23;;;;;;;2.42;1.70;;;;;;;;;;5090970;28;20163;-60
2023/01/19 02:15:17;;;;;;;0.40;0.40;;;;;;;;;;5092775;28;20048;-61
2023/01/19 02:17:47;;;;;;;0.82;0.82;;;;;;;;;;5085848;28;20131;-60
2023/01/19 02:20:16;;;;;;;1.88;0.45;;;;;;;;;;5084268;28;20052;-60
2023/01/19 02:22:48;;;;;;;0.77;0.77;;;;;;;;;;5078174;28;20062;-60
2023/01/19 02:25:19;;;;;;;0.32;0.32;;;;;;;;;;5091134;28;20060;-60
2023/01/19 02:27:48;;;;;;;1.35;0.80;;;;;;;;;;5091030;28;20502;-59
2023/01/19 02:30:18;;;;;;;0.80;0.80;;;;;;;;;;5094869;28;20052;-60
2023/01/19 02:32:46;;;;;;;1.02;0.80;;;;;;;;;;5090555;28;20468;-60
2023/01/19 02:35:14;;;;;;;2.22;1.10;;;;;;;;;;5083933;28;20054;-60
2023/01/19 02:37:44;;;;;;;0.50;0.50;;;;;;;;;;5089030;28;20051;-60
2023/01/19 02:40:13;;;;;;;0.63;0.43;;;;;;;;;;5098244;28;20133;-60
2023/01/19 02:42:44;;;;;;;0.63;0.63;;;;;;;;;;5087031;28;20052;-60
2023/01/19 02:45:14;;;;;;;0.30;0.30;;;;;;;;;;5084622;28;20067;-60
2023/01/19 02:47:44;;;;;;;2.58;1.08;;;;;;;;;;5084315;28;20139;-60
2023/01/19 02:50:49;;;;;;;0.50;0.50;;;;;;;;;;5099092;28;20048;-60
2023/01/19 02:53:47;;;;;;;0.33;0.30;;;;;;;;;;5011651;28;20137;-60
2023/01/19 02:56:36;;;;;;;0.82;0.82;;;;;;;;;;5009228;28;20054;-60
2023/01/19 02:59:11;;;;;;;0.98;0.88;;;;;;;;;;5024123;28;20041;-60
2023/01/19 03:01:46;;;;;;;0.68;0.35;;;;;;;;;;5090208;28;20052;-60
2023/01/19 03:04:18;;;;;;;1.75;0.88;;;;;;;;;;5090999;28;20060;-60
2023/01/19 03:06:49;;;;;;;5.72;0.90;;;;;;;;;;5086134;28;20051;-59
2023/01/19 03:09:22;;;;;;;0.60;0.60;;;;;;;;;;5092141;28;20056;-59
2023/01/19 03:11:51;;;;;;;0.28;0.28;;;;;;;;;;5092434;28;20055;-60
2023/01/19 03:14:23;;;;;;;0.57;0.57;;;;;;;;;;5091518;28;20052;-60
2023/01/19 03:16:53;;;;;;;0.85;0.60;;;;;;;;;;5082821;28;20561;-60
2023/01/19 03:19:23;;;;;;;0.38;0.38;;;;;;;;;;5092905;28;20369;-59
2023/01/19 03:21:53;;;;;;;0.30;0.30;;;;;;;;;;5095030;28;20048;-60
2023/01/19 03:24:23;;;;;;;0.98;0.65;;;;;;;;;;5092768;28;20048;-59
2023/01/19 03:26:56;;;;;;;0.43;0.43;;;;;;;;;;5101272;28;20044;-60
2023/01/19 03:29:28;;;;;;;2.63;0.98;;;;;;;;;;5084159;28;20040;-59
2023/01/19 03:31:57;;;;;;;1.95;0.60;;;;;;;;;;5090763;28;20048;-59
2023/01/19 03:34:27;;;;;;;0.68;0.68;;;;;;;;;;5085578;28;20055;-59
2023/01/19 03:36:58;;;;;;;0.73;0.73;;;;;;;;;;5091594;28;20048;-59
2023/01/19 03:39:27;;;;;;;1.02;1.02;;;;;;;;;;5100716;28;20048;-60
2023/01/19 03:41:57;;;;;;;1.55;0.52;;;;;;;;;;5090900;28;20491;-59
2023/01/19 03:44:28;;;;;;;1.05;0.98;;;;;;;;;;5099364;28;20047;-59
2023/01/19 03:46:57;;;;;;;0.50;0.50;;;;;;;;;;5081980;28;20474;-59
2023/01/19 03:49:25;;;;;;;1.83;0.85;;;;;;;;;;5088919;28;20051;-60
2023/01/19 03:51:55;;;;;;;0.30;0.30;;;;;;;;;;5091604;28;20047;-60
2023/01/19 03:54:24;;;;;;;0.70;0.70;;;;;;;;;;5093104;28;20138;-60
2023/01/19 03:56:52;;;;;;;1.10;0.95;;;;;;;;;;5090731;28;20389;-59
2023/01/19 03:59:21;;;;;;;1.02;0.90;;;;;;;;;;5100531;28;20482;-60
2023/01/19 04:01:51;;;;;;;2.20;1.67;;;;;;;;;;5091319;28;20048;-59
2023/01/19 04:04:19;;;;;;;0.32;0.32;;;;;;;;;;5087591;28;20135;-60
2023/01/19 04:06:47;;;;;;;0.40;0.40;;;;;;;;;;5096810;28;20056;-59
2023/01/19 04:09:15;;;;;;;1.00;0.88;;;;;;;;;;5090912;28;20052;-60
2023/01/19 04:11:46;;;;;;;0.57;0.57;;;;;;;;;;5091092;28;20044;-59
2023/01/19 04:14:14;;;;;;;0.90;0.90;;;;;;;;;;5087807;28;20056;-59
2023/01/19 04:16:43;;;;;;;0.60;0.60;;;;;;;;;;5093098;28;20051;-60
2023/01/19 04:19:12;;;;;;;0.45;0.45;;;;;;;;;;5092694;28;20044;-59
2023/01/19 04:21:41;;;;;;;3.70;1.00;;;;;;;;;;5092871;28;20048;-59
2023/01/19 04:24:09;;;;;;;1.77;1.25;;;;;;;;;;5089173;28;20508;-60
2023/01/19 04:26:38;;;;;;;2.05;0.93;;;;;;;;;;5094095;28;20488;-59
2023/01/19 04:29:06;;;;;;;0.80;0.52;;;;;;;;;;5090076;28;20493;-60
2023/01/19 04:31:35;;;;;;;0.73;0.73;;;;;;;;;;5098064;28;20040;-59
2023/01/19 04:34:04;;;;;;;1.10;1.02;;;;;;;;;;5088897;28;20139;-59
2023/01/19 04:36:34;;;;;;;0.38;0.38;;;;;;;;;;5082487;28;20055;-59
2023/01/19 04:39:02;;;;;;;0.40;0.30;;;;;;;;;;5077466;28;20056;-60
2023/01/19 04:41:30;;;;;;;1.45;1.05;;;;;;;;;;5081896;28;20044;-60
2023/01/19 04:43:59;;;;;;;0.40;0.40;;;;;;;;;;5075387;28;20496;-60
2023/01/19 04:46:27;;;;;;;1.50;1.40;;;;;;;;;;5099615;28;20044;-60
2023/01/19 04:48:55;;;;;;;0.85;0.85;;;;;;;;;;5093422;28;20052;-60
2023/01/19 04:51:24;;;;;;;3.30;0.77;;;;;;;;;;5091084;28;20055;-59
2023/01/19 04:53:54;;;;;;;0.50;0.50;;;;;;;;;;5079182;28;20048;-59
2023/01/19 04:56:22;;;;;;;0.88;0.60;;;;;;;;;;5101878;28;20052;-59
2023/01/19 04:58:50;;;;;;;1.63;0.57;;;;;;;;;;5091410;28;20039;-59
2023/01/19 05:01:18;;;;;;;1.10;0.82;;;;;;;;;;5091378;28;20484;-60
2023/01/19 05:03:47;;;;;;;0.82;0.47;;;;;;;;;;5080530;28;20415;-59
2023/01/19 05:06:15;;;;;;;1.50;0.82;;;;;;;;;;5091385;28;20054;-60
2023/01/19 05:08:43;;;;;;;1.33;0.65;;;;;;;;;;5101008;28;20504;-60
2023/01/19 05:11:14;;;;;;;1.65;1.02;;;;;;;;;;5089116;28;20174;-60
2023/01/19 05:13:42;;;;;;;1.95;1.52;;;;;;;;;;5094362;28;20377;-60
2023/01/19 05:16:12;;;;;;;4.13;1.02;;;;;;;;;;5084306;28;20495;-60
2023/01/19 05:18:41;;;;;;;0.63;0.63;;;;;;;;;;5089878;28;20494;-60
2023/01/19 05:21:09;;;;;;;0.70;0.70;;;;;;;;;;5088721;28;20055;-60
2023/01/19 05:23:37;;;;;;;1.17;0.77;;;;;;;;;;5094069;28;20043;-59
2023/01/19 05:26:06;;;;;;;0.85;0.85;;;;;;;;;;5094740;28;20048;-59
2023/01/19 05:28:38;;;;;;;2.45;0.93;;;;;;;;;;5082920;28;20127;-60
2023/01/19 05:31:06;;;;;;;0.63;0.55;;;;;;;;;;5081439;28;20058;-60
2023/01/19 05:33:35;;;;;;;0.77;0.77;;;;;;;;;;5078526;28;20048;-59
2023/01/19 05:36:04;;;;;;;2.58;0.60;;;;;;;;;;5092530;28;20078;-60
2023/01/19 05:38:32;;;;;;;0.20;0.20;;;;;;;;;;5079239;28;20040;-59
2023/01/19 05:41:03;;;;;;;0.52;0.52;;;;;;;;;;5083473;28;20052;-60
2023/01/19 05:43:31;;;;;;;1.00;0.63;;;;;;;;;;5086971;28;20558;-60
2023/01/19 05:46:01;;;;;;;0.43;0.43;;;;;;;;;;5079218;28;20051;-60
2023/01/19 05:48:29;;;;;;;0.70;0.70;;;;;;;;;;5089994;28;20048;-60
2023/01/19 05:50:58;;;;;;;1.52;0.50;;;;;;;;;;5089938;28;20051;-60
2023/01/19 05:53:26;;;;;;;1.67;1.58;;;;;;;;;;5084353;28;20055;-59
2023/01/19 05:55:54;;;;;;;2.95;0.70;;;;;;;;;;5096002;28;20068;-59
2023/01/19 05:58:23;;;;;;;0.60;0.43;;;;;;;;;;5097547;28;20048;-59
2023/01/19 06:00:51;;;;;;;1.17;0.57;;;;;;;;;;5079617;28;20411;-59
2023/01/19 06:03:21;;;;;;;0.60;0.60;;;;;;;;;;5085544;28;20074;-59
2023/01/19 06:05:49;;;;;;;2.92;1.40;;;;;;;;;;5094161;28;20135;-61
2023/01/19 06:08:17;;;;;;;0.80;0.80;;;;;;;;;;5082125;28;20052;-60
2023/01/19 06:10:45;;;;;;;3.53;1.30;;;;;;;;;;5087242;28;20044;-59
2023/01/19 06:13:14;;;;;;;0.63;0.63;;;;;;;;;;5081357;28;20049;-60
2023/01/19 06:15:42;;;;;;;0.60;0.60;;;;;;;;;;5087426;28;20048;-60
2023/01/19 06:18:11;;;;;;;2.95;0.70;;;;;;;;;;5083498;28;20048;-59
2023/01/19 06:20:41;;;;;;;1.40;0.55;;;;;;;;;;5088539;28;20055;-60
2023/01/19 06:23:09;;;;;;;1.20;1.10;;;;;;;;;;5081248;28;20052;-60
2023/01/19 06:25:38;;;;;;;1.55;1.00;;;;;;;;;;5081920;28;20047;-60
2023/01/19 06:28:06;;;;;;;1.45;1.38;;;;;;;;;;5074735;28;20047;-60
2023/01/19 06:30:34;;;;;;;1.00;1.00;;;;;;;;;;5084401;28;20056;-60
2023/01/19 06:33:03;;;;;;;1.25;0.88;;;;;;;;;;5091288;28;20453;-60
2023/01/19 06:35:31;;;;;;;1.48;1.38;;;;;;;;;;5078492;28;20048;-59
2023/01/19 06:38:01;;;;;;;2.40;1.30;;;;;;;;;;5076553;28;20044;-60
2023/01/19 06:40:29;;;;;;;1.27;1.27;;;;;;;;;;5095210;28;20048;-60
2023/01/19 06:42:57;;;;;;;0.80;0.80;;;;;;;;;;5090323;28;20044;-59
2023/01/19 06:45:26;;;;;;;0.95;0.50;;;;;;;;;;5090412;28;20188;-60
2023/01/19 06:47:54;;;;;;;0.40;0.40;;;;;;;;;;5082903;28;20101;-60
2023/01/19 06:50:22;;;;;;;6.43;1.10;;;;;;;;;;5087344;28;20582;-62
2023/01/19 06:52:51;;;;;;;1.00;0.73;;;;;;;;;;5099101;28;20059;-60
2023/01/19 06:55:21;;;;;;;6.43;1.88;;;;;;;;;;5094035;28;20130;-60
2023/01/19 06:57:56;;;;;;;4.65;0.85;;;;;;;;;;5092436;28;20043;-60
2023/01/19 07:00:24;;;;;;;0.98;0.55;;;;;;;;;;5085113;28;20194;-61
2023/01/19 07:02:53;;;;;;;1.00;1.00;;;;;;;;;;5095140;28;20044;-61
2023/01/19 07:05:21;;;;;;;1.27;1.17;;;;;;;;;;5083552;28;20553;-60
2023/01/19 07:07:53;;;;;;;3.08;1.60;;;;;;;;;;5084242;28;20041;-60
2023/01/19 07:10:23;;;;;;;0.52;0.52;;;;;;;;;;5092707;28;20059;-59
2023/01/19 07:12:52;;;;;;;2.58;1.10;;;;;;;;;;5090369;28;20759;-60
2023/01/19 07:15:21;;;;;;;0.32;0.32;;;;;;;;;;5087888;28;20480;-60
2023/01/19 07:17:50;;;;;;;0.38;0.38;;;;;;;;;;5100813;28;20422;-61
2023/01/19 07:20:18;;;;;;;2.05;0.70;;;;;;;;;;5077601;28;20071;-59
2023/01/19 07:22:47;;;;;;;2.30;1.00;;;;;;;;;;5092105;28;20048;-61
2023/01/19 07:25:16;;;;;;;1.45;1.35;;;;;;;;;;5090249;28;20047;-60
2023/01/19 07:27:45;;;;;;;2.58;0.95;;;;;;;;;;5089143;28;20067;-59
2023/01/19 07:30:14;;;;;;;0.80;0.40;;;;;;;;;;5093450;28;20044;-60
2023/01/19 07:32:43;;;;;;;1.40;1.17;;;;;;;;;;5089636;28;20054;-61
2023/01/19 07:35:11;;;;;;;1.65;1.42;;;;;;;;;;5091294;28;20040;-60
2023/01/19 07:37:39;;;;;;;0.38;0.38;;;;;;;;;;5093873;28;20131;-60
2023/01/19 07:40:08;;;;;;;0.50;0.50;;;;;;;;;;5093471;28;20126;-59
2023/01/19 07:42:37;;;;;;;0.95;0.47;;;;;;;;;;5086575;28;20048;-60
2023/01/19 07:45:08;;;;;;;0.30;0.30;;;;;;;;;;5090373;28;20036;-61
2023/01/19 07:47:36;;;;;;;0.45;0.45;;;;;;;;;;5082569;28;20048;-59
2023/01/19 07:50:04;;;;;;;2.85;0.95;;;;;;;;;;5089003;28;20052;-60
2023/01/19 07:52:33;;;;;;;0.73;0.73;;;;;;;;;;5080513;28;20098;-59
2023/01/19 07:55:01;;;;;;;1.73;1.10;;;;;;;;;;5094487;28;20491;-60
2023/01/19 07:57:30;;;;;;;1.35;1.27;;;;;;;;;;5091081;28;20542;-60
2023/01/19 07:59:58;;;;;;;0.60;0.57;;;;;;;;;;5091586;28;20044;-60
2023/01/19 08:02:29;;;;;;;1.00;1.00;;;;;;;;;;5084277;28;20044;-60
2023/01/19 08:04:57;;;;;;;0.65;0.52;;;;;;;;;;5083943;28;20085;-58
2023/01/19 08:07:25;;;;;;;4.68;0.45;;;;;;;;;;5090919;28;20127;-60
2023/01/19 08:09:54;;;;;;;1.98;1.85;;;;;;;;;;5080283;28;20530;-59
2023/01/19 08:12:22;;;;;;;0.30;0.30;;;;;;;;;;5090667;28;21016;-60
2023/01/19 08:14:50;;;;;;;0.63;0.63;;;;;;;;;;5092470;28;20152;-60
2023/01/19 08:17:19;;;;;;;0.30;0.30;;;;;;;;;;5092373;28;20048;-60
2023/01/19 08:19:49;;;;;;;0.30;0.28;;;;;;;;;;5087309;28;20101;-60
2023/01/19 08:22:17;;;;;;;4.43;0.75;;;;;;;;;;5093123;28;20099;-60
2023/01/19 08:24:46;;;;;;;0.50;0.50;;;;;;;;;;5093191;28;20052;-59
2023/01/19 08:27:17;;;;;;;1.13;0.60;;;;;;;;;;5088419;28;20079;-60
2023/01/19 08:29:45;;;;;;;0.57;0.57;;;;;;;;;;5084911;28;20066;-59
2023/01/19 08:32:14;;;;;;;0.77;0.77;;;;;;;;;;5088469;28;20484;-60
2023/01/19 08:34:43;;;;;;;0.70;0.68;;;;;;;;;;5089144;28;20036;-60
2023/01/19 08:37:13;;;;;;;0.35;0.35;;;;;;;;;;5092729;28;20472;-60
2023/01/19 08:39:42;;;;;;;0.82;0.82;;;;;;;;;;5091136;28;20079;-61
2023/01/19 08:42:11;;;;;;;5.68;0.68;;;;;;;;;;5089089;28;20063;-60
2023/01/19 08:44:39;;;;;;;0.32;0.32;;;;;;;;;;5086201;28;20083;-60
2023/01/19 08:47:24;;;;;;;0.30;0.30;;;;;;;;;;5095421;28;20048;-60
2023/01/19 08:49:52;;;;;;;0.30;0.30;;;;;;;;;;5091405;28;20123;-60
2023/01/19 08:52:25;;;;;;;0.30;0.30;;;;;;;;;;5091807;28;20093;-60
2023/01/19 08:54:53;;;;;;;0.35;0.35;;;;;;;;;;5083296;28;20565;-61
2023/01/19 08:57:21;;;;;;;0.30;0.30;;;;;;;;;;5090467;28;20044;-60
2023/01/19 08:59:50;;;;;;;4.20;0.63;;;;;;;;;;5098581;28;20067;-60
2023/01/19 09:02:18;;;;;;;0.43;0.43;;;;;;;;;;5076613;28;20155;-62
2023/01/19 09:04:46;;;;;;;0.93;0.90;;;;;;;;;;5087083;28;20496;-60
2023/01/19 09:07:16;;;;;;;1.70;1.10;;;;;;;;;;5090382;28;20062;-60
2023/01/19 09:09:46;;;;;;;0.90;0.90;;;;;;;;;;5084322;28;20378;-60
2023/01/19 09:12:15;;;;;;;0.70;0.70;;;;;;;;;;5077096;28;20059;-59
2023/01/19 09:14:43;;;;;;;1.05;1.00;;;;;;;;;;5103164;28;20051;-60
2023/01/19 09:17:13;;;;;;;0.88;0.88;;;;;;;;;;5086663;28;20048;-60
2023/01/19 09:19:42;;;;;;;0.73;0.73;;;;;;;;;;5089438;28;20154;-60
2023/01/19 09:22:10;;;;;;;0.20;0.20;;;;;;;;;;5088462;28;20560;-60
2023/01/19 09:24:39;;;;;;;1.25;1.15;;;;;;;;;;5087456;28;20415;-60
2023/01/19 09:27:08;;;;;;;0.88;0.88;;;;;;;;;;5089005;28;20082;-60
2023/01/19 09:29:37;;;;;;;0.50;0.50;;;;;;;;;;5085031;28;20051;-60
2023/01/19 09:32:05;;;;;;;5.22;2.15;;;;;;;;;;5089769;28;20048;-60
2023/01/19 09:34:34;;;;;;;1.17;1.08;;;;;;;;;;5089371;28;20140;-60
2023/01/19 09:37:02;;;;;;;0.40;0.40;;;;;;;;;;5095215;28;20044;-60
2023/01/19 09:39:31;;;;;;;0.60;0.60;;;;;;;;;;5078060;28;20044;-60
2023/01/19 09:42:04;;;;;;;4.72;0.85;;;;;;;;;;5080454;28;20040;-60
2023/01/19 09:44:36;;;;;;;0.52;0.52;;;;;;;;;;5084444;28;20079;-60
2023/01/19 09:47:13;;;;;;;1.52;0.90;;;;;;;;;;5090812;28;20570;-61
2023/01/19 09:49:43;;;;;;;2.40;1.40;;;;;;;;;;5076073;28;20537;-59
2023/01/19 09:52:13;;;;;;;2.80;1.30;;;;;;;;;;5083606;28;20059;-60
2023/01/19 09:54:46;;;;;;;2.88;1.08;;;;;;;;;;5087262;28;20072;-59
2023/01/19 09:57:14;;;;;;;1.23;1.13;;;;;;;;;;5090368;28;20044;-59
2023/01/19 09:59:48;;;;;;;2.22;1.38;;;;;;;;;;5081376;28;20139;-59
2023/01/19 10:02:24;;;;;;;0.52;0.52;;;;;;;;;;5080154;28;20105;-61
2023/01/19 10:04:57;;;;;;;0.50;0.50;;;;;;;;;;5087527;28;20048;-59
2023/01/19 10:07:32;;;;;;;0.80;0.80;;;;;;;;;;5086163;28;20048;-60
2023/01/19 10:10:09;;;;;;;0.47;0.47;;;;;;;;;;5084221;28;20076;-60
2023/01/19 10:12:45;;;;;;;0.75;0.57;;;;;;;;;;5083638;28;20097;-59
2023/01/19 10:15:23;;;;;;;0.73;0.45;;;;;;;;;;5081693;28;20056;-59
2023/01/19 10:17:58;;;;;;;0.88;0.88;;;;;;;;;;5078594;28;20044;-60
2023/01/19 10:20:31;;;;;;;1.02;0.95;;;;;;;;;;5085747;28;20063;-60
2023/01/19 10:23:00;;;;;;;0.30;0.20;;;;;;;;;;5077724;28;20086;-59
2023/01/19 10:25:29;;;;;;;0.88;0.77;;;;;;;;;;5085548;28;20048;-60
2023/01/19 10:27:59;;;;;;;6.72;1.20;;;;;;;;;;5083897;28;20054;-60
2023/01/19 10:30:30;;;;;;;1.85;1.75;;;;;;;;;;5085438;28;20054;-62
2023/01/19 10:32:58;;;;;;;2.83;0.55;;;;;;;;;;5078313;28;20053;-59
2023/01/19 10:35:27;;;;;;;0.57;0.57;;;;;;;;;;5081247;28;20488;-60
2023/01/19 10:37:58;;;;;;;1.20;0.85;;;;;;;;;;5087199;28;20131;-60
2023/01/19 10:40:29;;;;;;;2.17;1.20;;;;;;;;;;5087455;28;20048;-62
2023/01/19 10:42:57;;;;;;;1.30;1.20;;;;;;;;;;5074509;28;20044;-65
2023/01/19 10:45:28;;;;;;;6.65;1.45;;;;;;;;;;5081183;28;20048;-60
2023/01/19 10:48:01;;;;;;;2.03;1.52;;;;;;;;;;5084178;28;20506;-60
2023/01/19 10:50:30;;;;;;;1.30;1.20;;;;;;;;;;5084124;28;20087;-60
2023/01/19 10:52:59;;;;;;;0.57;0.57;;;;;;;;;;5080526;28;20048;-63
2023/01/19 10:55:30;;;;;;;1.25;1.15;;;;;;;;;;5077143;28;20094;-60
2023/01/19 10:57:59;;;;;;;1.55;1.20;;;;;;;;;;5081427;28;20129;-60
2023/01/19 11:00:36;;;;;;;0.50;0.50;;;;;;;;;;5086029;28;20071;-60
2023/01/19 11:03:21;;;;;;;1.40;0.93;;;;;;;;;;5078422;28;20045;-61
2023/01/19 11:05:50;;;;;;;0.60;0.60;;;;;;;;;;5085265;28;20056;-60
2023/01/19 11:08:27;;;;;;;0.45;0.45;;;;;;;;;;5085890;28;20441;-61
2023/01/19 11:11:01;;;;;;;0.73;0.73;;;;;;;;;;5079887;28;20048;-60
2023/01/19 11:13:29;;;;;;;4.53;1.10;;;;;;;;;;5083112;28;20249;-60
2023/01/19 11:15:59;;;;;;;0.98;0.80;;;;;;;;;;5084917;28;20051;-60
2023/01/19 11:18:30;;;;;;;0.50;0.50;;;;;;;;;;5089529;28;20446;-62
2023/01/19 11:21:01;;;;;;;1.45;0.75;;;;;;;;;;5076013;28;20131;-61
2023/01/19 11:23:30;;;;;;;1.73;1.40;;;;;;;;;;5086339;28;20083;-60
2023/01/19 11:26:00;;;;;;;0.73;0.73;;;;;;;;;;5087906;28;20060;-61
2023/01/19 11:28:29;;;;;;;0.60;0.40;;;;;;;;;;5088886;28;20055;-61
2023/01/19 11:30:58;;;;;;;1.35;0.63;;;;;;;;;;5090909;28;20047;-61
2023/01/19 11:33:34;;;;;;;0.70;0.60;;;;;;;;;;5092323;28;20534;-62
2023/01/19 11:36:04;;;;;;;0.82;0.68;;;;;;;;;;5084498;28;20054;-62
2023/01/19 11:38:33;;;;;;;1.30;0.98;;;;;;;;;;5087354;28;20127;-61
2023/01/19 11:41:05;;;;;;;1.05;0.93;;;;;;;;;;5090015;28;20052;-62
2023/01/19 11:43:33;;;;;;;0.88;0.88;;;;;;;;;;5087254;28;20134;-62
2023/01/19 11:46:16;;;;;;;1.88;0.93;;;;;;;;;;5085031;28;20044;-62
2023/01/19 11:48:48;;;;;;;0.63;0.63;;;;;;;;;;5086640;28;20048;-62
2023/01/19 11:51:20;;;;;;;0.70;0.70;;;;;;;;;;5083411;28;20048;-62
2023/01/19 11:53:52;;;;;;;2.15;1.15;;;;;;;;;;5092659;28;20082;-62
2023/01/19 11:56:22;;;;;;;0.52;0.30;;;;;;;;;;5084837;28;20158;-62
2023/01/19 11:58:51;;;;;;;1.60;0.95;;;;;;;;;;5091129;28;20048;-62
2023/01/19 12:01:23;;;;;;;0.70;0.50;;;;;;;;;;5087272;28;20059;-61
2023/01/19 12:03:55;;;;;;;1.00;0.50;;;;;;;;;;5088794;28;20055;-62
2023/01/19 12:06:26;;;;;;;0.82;0.68;;;;;;;;;;5089604;28;20442;-62
2023/01/19 12:08:55;;;;;;;0.57;0.55;;;;;;;;;;5092022;28;20105;-62
2023/01/19 12:11:29;;;;;;;1.95;0.88;;;;;;;;;;5087902;28;20040;-61
2023/01/19 12:13:57;;;;;;;0.73;0.73;;;;;;;;;;5083130;28;20139;-62
2023/01/19 12:16:29;;;;;;;1.20;0.77;;;;;;;;;;5088726;28;20052;-62
2023/01/19 12:19:00;;;;;;;0.85;0.65;;;;;;;;;;5088153;28;20040;-63
2023/01/19 12:21:28;;;;;;;2.20;0.50;;;;;;;;;;5083731;28;20393;-61
2023/01/19 12:24:04;;;;;;;1.30;1.20;;;;;;;;;;5089473;28;20606;-62
2023/01/19 12:26:35;;;;;;;0.60;0.60;;;;;;;;;;5087660;28;20051;-63
2023/01/19 12:29:08;;;;;;;0.47;0.40;;;;;;;;;;5086998;28;20052;-63
2023/01/19 12:31:39;;;;;;;1.45;0.60;;;;;;;;;;5088300;28;20075;-62
2023/01/19 12:34:31;;;;;;;1.08;0.98;;;;;;;;;;5083243;28;20052;-62
2023/01/19 12:37:02;;;;;;;0.43;0.43;;;;;;;;;;5082178;28;20043;-62
2023/01/19 12:39:32;;;;;;;0.50;0.50;;;;;;;;;;5094434;28;20063;-62
2023/01/19 12:42:14;;;;;;;0.80;0.75;;;;;;;;;;5090943;28;20045;-62
2023/01/19 12:44:43;;;;;;;1.05;1.00;;;;;;;;;;5076131;28;20055;-62
2023/01/19 12:47:29;;;;;;;1.90;1.10;;;;;;;;;;5086165;28;20054;-62
2023/01/19 12:50:04;;;;;;;2.63;1.10;;;;;;;;;;5078426;28;20051;-62
2023/01/19 12:52:33;;;;;;;1.08;0.93;;;;;;;;;;5089218;28;20099;-63
2023/01/19 12:55:17;;;;;;;0.20;0.20;;;;;;;;;;5098718;28;20048;-62
2023/01/19 12:57:49;;;;;;;0.40;0.40;;;;;;;;;;5086980;28;20471;-61
2023/01/19 13:00:29;;;;;;;0.17;0.17;;;;;;;;;;5094991;28;20043;-62
2023/01/19 13:02:58;;;;;;;1.35;0.80;;;;;;;;;;5085981;28;20438;-63
2023/01/19 13:05:57;;;;;;;0.75;0.75;;;;;;;;;;5088795;28;20143;-62
2023/01/19 13:08:30;;;;;;;7.80;0.80;;;;;;;;;;5082253;28;20142;-62
2023/01/19 13:11:22;;;;;;;0.63;0.63;;;;;;;;;;5085664;28;20051;-63
2023/01/19 13:14:27;;;;;;;1.90;0.57;;;;;;;;;;5087589;28;20052;-63
2023/01/19 13:17:03;;;;;;;0.50;0.50;;;;;;;;;;5088786;28;20547;-63
2023/01/19 13:19:43;;;;;;;0.45;0.45;;;;;;;;;;5087100;28;20403;-63
2023/01/19 13:22:30;;;;;;;0.60;0.60;;;;;;;;;;5081666;28;20044;-64
2023/01/19 13:25:07;;;;;;;0.65;0.65;;;;;;;;;;5078807;28;20369;-62
2023/01/19 13:27:36;;;;;;;0.20;0.20;;;;;;;;;;5085346;28;20043;-63
2023/01/19 13:30:10;;;;;;;3.20;0.85;;;;;;;;;;5082493;28;20058;-63
2023/01/19 13:32:41;;;;;;;0.32;0.30;;;;;;;;;;5086015;28;20135;-63
2023/01/19 13:35:14;;;;;;;1.00;1.00;;;;;;;;;;5088256;28;20131;-63
2023/01/19 13:37:44;;;;;;;3.70;1.20;;;;;;;;;;5085384;28;20059;-62
2023/01/19 13:40:18;;;;;;;1.00;0.93;;;;;;;;;;5088991;28;20048;-62
2023/01/19 13:42:48;;;;;;;2.35;0.43;;;;;;;;;;5086698;28;20150;-62
2023/01/19 13:45:18;;;;;;;1.80;0.98;;;;;;;;;;5088507;28;20055;-63
2023/01/19 13:47:48;;;;;;;2.38;1.30;;;;;;;;;;5083366;28;20055;-62
2023/01/19 13:50:20;;;;;;;1.10;1.02;;;;;;;;;;5088494;28;20056;-62
2023/01/19 13:52:52;;;;;;;0.52;0.52;;;;;;;;;;5083387;28;20362;-63
2023/01/19 13:55:23;;;;;;;0.80;0.80;;;;;;;;;;5084742;28;20295;-63
2023/01/19 13:57:52;;;;;;;1.52;0.77;;;;;;;;;;5078174;28;20054;-63
2023/01/19 14:00:21;;;;;;;1.00;0.90;;;;;;;;;;5087880;28;20113;-63
2023/01/19 14:02:58;;;;;;;0.38;0.38;;;;;;;;;;5079494;28;20562;-63
2023/01/19 14:05:29;;;;;;;1.17;1.00;;;;;;;;;;5073946;28;20088;-64
2023/01/19 14:08:01;;;;;;;1.70;0.82;;;;;;;;;;5082127;28;20044;-64
2023/01/19 14:10:32;;;;;;;4.65;1.05;;;;;;;;;;5087110;28;20044;-62
2023/01/19 14:13:01;;;;;;;2.63;1.00;;;;;;;;;;5073328;28;20049;-62
2023/01/19 14:15:30;;;;;;;0.17;0.17;;;;;;;;;;5090060;28;20580;-62
2023/01/19 14:18:09;;;;;;;0.30;0.30;;;;;;;;;;5085755;28;20048;-63
2023/01/19 14:20:38;;;;;;;0.40;0.40;;;;;;;;;;5088510;28;20044;-63
2023/01/19 14:23:27;;;;;;;0.82;0.82;;;;;;;;;;5083390;28;20047;-62
2023/01/19 14:25:57;;;;;;;0.63;0.57;;;;;;;;;;5091202;28;20370;-63
2023/01/19 14:28:30;;;;;;;2.22;1.52;;;;;;;;;;5083654;28;20056;-63
2023/01/19 14:30:59;;;;;;;0.20;0.20;;;;;;;;;;5089222;28;20510;-63
2023/01/19 14:33:35;;;;;;;1.52;0.70;;;;;;;;;;5090316;28;20075;-63
2023/01/19 14:36:10;;;;;;;0.50;0.50;;;;;;;;;;5089686;28;20048;-64
2023/01/19 14:38:43;;;;;;;1.67;0.57;;;;;;;;;;5086184;28;20056;-65
2023/01/19 14:41:22;;;;;;;0.52;0.52;;;;;;;;;;5082634;28;20078;-64
2023/01/19 14:43:51;;;;;;;0.52;0.52;;;;;;;;;;5088531;28;20063;-63
2023/01/19 14:46:20;;;;;;;0.63;0.20;;;;;;;;;;5090959;28;20492;-64
2023/01/19 14:48:49;;;;;;;3.40;0.90;;;;;;;;;;5103579;28;20487;-64
2023/01/19 14:51:19;;;;;;;0.10;0.10;;;;;;;;;;5076808;28;20080;-64
2023/01/19 14:53:50;;;;;;;0.20;0.20;;;;;;;;;;5084435;28;20044;-64
2023/01/19 14:56:28;;;;;;;0.57;0.50;;;;;;;;;;5081307;28;20044;-62
2023/01/19 14:58:57;;;;;;;0.50;0.50;;;;;;;;;;5086665;28;20453;-63
2023/01/19 15:01:28;;;;;;;1.77;1.00;;;;;;;;;;5093055;28;20462;-63
2023/01/19 15:03:57;;;;;;;0.35;0.35;;;;;;;;;;5089304;28;20049;-63
2023/01/19 15:06:26;;;;;;;0.47;0.47;;;;;;;;;;5090115;28;20495;-62
2023/01/19 15:08:56;;;;;;;0.32;0.32;;;;;;;;;;5087104;28;20503;-63
2023/01/19 15:11:25;;;;;;;1.65;0.65;;;;;;;;;;5091075;28;20047;-63
2023/01/19 15:13:56;;;;;;;1.45;0.98;;;;;;;;;;5085005;28;20555;-62
2023/01/19 15:16:25;;;;;;;2.00;0.65;;;;;;;;;;5086185;28;20142;-62